Time;durP1;ratioP1;P1;durP2;ratioP2;P2;SDS_P1;SDS_P2;PMS_P1;PMS_P2;Temp;Humidity;BMP_temperature;BMP_pressure;BME280_temperature;BME280_humidity;BME280_pressure;Samples;Min_cycle;Max_cycle;Signal;HPM_P1;HPM_P2
2022/05/21 00:02:18;;;;;;;;;;;;;;;-144.99;100.00;52342.09;4967532;28;20231;-73
2022/05/21 00:04:45;;;;;;;;;;;;;;;-144.99;100.00;52321.72;4961552;28;20278;-74
2022/05/21 00:07:11;;;;;;;;;;;;;;;-144.99;100.00;52297.25;4968596;28;19942;-75
2022/05/21 00:09:37;;;;;;;;;;;;;;;-144.99;100.00;52329.88;4966486;28;19965;-74
2022/05/21 00:12:04;;;;;;;;;;;;;;;-144.99;100.00;52333.94;4966709;28;19930;-73
2022/05/21 00:14:34;;;;;;;;;;;;;;;-144.99;100.00;52295.22;4969852;28;19933;-76
2022/05/21 00:17:00;;;;;;;;;;;;;;;-144.99;100.00;52293.19;4973481;28;19933;-73
2022/05/21 00:19:27;;;;;;;;;;;;;;;-144.99;100.00;52342.09;4959030;28;19961;-74
2022/05/21 00:21:53;;;;;;;;;;;;;;;-144.99;100.00;52362.50;4966018;28;20212;-75
2022/05/21 00:24:20;;;;;;;;;;;;;;;-144.99;100.00;52323.75;4957017;28;19930;-75
2022/05/21 00:26:47;;;;;;;;;;;;;;;-144.99;100.00;52307.47;4962864;28;20012;-76
2022/05/21 00:29:13;;;;;;;;;;;;;;;-144.99;100.00;52321.72;4965539;28;20295;-74
2022/05/21 00:31:41;;;;;;;;;;;;;;;-144.99;100.00;52309.50;4964057;28;19930;-74
2022/05/21 00:34:07;;;;;;;;;;;;;;;-144.99;100.00;52350.25;4956885;28;19934;-74
2022/05/21 00:36:34;;;;;;;;;;;;;;;-144.99;100.00;52317.66;4960832;28;19937;-72
2022/05/21 00:39:00;;;;;;;;;;;;;;;-144.99;100.00;52313.56;4963656;28;19953;-75
2022/05/21 00:41:26;;;;;;;;;;;;;;;-144.99;100.00;52352.28;4970412;28;19938;-74
2022/05/21 00:43:54;;;;;;;;;;;;;;;-144.99;100.00;52305.41;4965000;28;20262;-75
2022/05/21 00:46:22;;;;;;;;;;;;;;;-144.99;100.00;52331.91;4963991;28;20152;-73
2022/05/21 00:48:54;;;;;;;;;;;;;;;-144.99;100.00;52340.06;4966032;28;19927;-73
2022/05/21 00:51:23;;;;;;;;;;;;;;;-144.99;100.00;52350.25;4969734;28;19930;-73
2022/05/21 00:53:51;;;;;;;;;;;;;;;-144.99;100.00;52293.19;4970379;28;19930;-74
2022/05/21 00:56:18;;;;;;;;;;;;;;;-144.99;100.00;52303.38;4966516;28;19937;-74
2022/05/21 01:01:31;;;;;;;;;;;;;;;-144.99;100.00;52354.34;4969572;28;19961;-71
2022/05/21 01:03:58;;;;;;;;;;;;;;;-144.99;100.00;52321.72;4623922;28;10000663;-72
2022/05/21 01:06:25;;;;;;;;;;;;;;;-144.99;100.00;52309.50;4967131;28;20264;-75
2022/05/21 01:08:51;;;;;;;;;;;;;;;-144.99;100.00;52333.94;4965426;28;20334;-75
2022/05/21 01:11:19;;;;;;;;;;;;;;;-144.99;100.00;52329.88;4957384;28;19934;-76
2022/05/21 01:13:46;;;;;;;;;;;;;;;-144.99;100.00;52280.97;4957435;28;19934;-74
2022/05/21 01:16:13;;;;;;;;;;;;;;;-144.99;100.00;52313.56;4986751;23;20414;-71
2022/05/21 01:18:39;;;;;;;;;;;;;;;-144.99;100.00;52301.34;4989841;28;19930;-71
2022/05/21 01:21:08;;;;;;;;;;;;;;;-144.99;100.00;52338.03;4977120;28;19933;-71
2022/05/21 01:23:35;;;;;;;;;;;;;;;-144.99;100.00;52342.09;4992221;28;19965;-72
2022/05/21 01:26:04;;;;;;;;;;;;;;;-144.99;100.00;52333.94;4992799;28;19926;-71
2022/05/21 01:28:32;;;;;;;;;;;;;;;-144.99;100.00;52342.09;4990270;28;19926;-71
2022/05/21 01:30:59;;;;;;;;;;;;;;;-144.99;100.00;52350.25;4987803;28;19930;-71
2022/05/21 01:33:27;;;;;;;;;;;;;;;-144.99;100.00;52331.91;4983766;28;20010;-71
2022/05/21 01:35:54;;;;;;;;;;;;;;;-144.99;100.00;52313.56;4990743;28;19985;-74
2022/05/21 01:38:21;;;;;;;;;;;;;;;-144.99;100.00;52313.56;4989127;28;20451;-74
2022/05/21 01:40:49;;;;;;;;;;;;;;;-144.99;100.00;52325.81;4981026;28;20415;-73
2022/05/21 01:45:59;;;;;;;;;;;;;;;-144.99;100.00;52313.56;4982560;28;19933;-74
2022/05/21 01:48:28;;;;;;;;;;;;;;;-144.99;100.00;52285.03;4965805;28;19927;-73
2022/05/21 01:50:54;;;;;;;;;;;;;;;-144.99;100.00;52317.66;4973194;28;19930;-73
2022/05/21 01:53:21;;;;;;;;;;;;;;;-144.99;100.00;52338.03;4981983;28;19934;-73
2022/05/21 01:55:50;;;;;;;;;;;;;;;-144.99;100.00;52338.03;4982776;28;19926;-73
2022/05/21 01:58:16;;;;;;;;;;;;;;;-144.99;100.00;52329.88;4978078;28;20021;-73
2022/05/21 02:00:43;;;;;;;;;;;;;;;-144.99;100.00;52350.25;4972845;28;19926;-74
2022/05/21 02:03:10;;;;;;;;;;;;;;;-144.99;100.00;52309.50;4974520;28;20308;-73
2022/05/21 02:05:37;;;;;;;;;;;;;;;-144.99;100.00;52309.50;4982487;28;19926;-71
2022/05/21 02:08:03;;;;;;;;;;;;;;;-144.99;100.00;52321.72;4984381;28;19925;-70
2022/05/21 02:10:29;;;;;;;;;;;;;;;-144.99;100.00;52362.50;4972380;28;19953;-71
2022/05/21 02:12:57;;;;;;;;;;;;;;;-144.99;100.00;52333.94;4979627;28;19947;-71
2022/05/21 02:15:24;;;;;;;;;;;;;;;-144.99;100.00;52301.34;4978976;28;19930;-71
2022/05/21 02:17:50;;;;;;;;;;;;;;;-144.99;100.00;52321.72;4981366;28;19926;-72
2022/05/21 02:20:16;;;;;;;;;;;;;;;-144.99;100.00;52321.72;4977963;28;19933;-71
2022/05/21 02:22:43;;;;;;;;;;;;;;;-144.99;100.00;52362.50;4981354;28;19926;-73
2022/05/21 02:25:09;;;;;;;;;;;;;;;-144.99;100.00;52313.56;4995209;28;19936;-72
2022/05/21 02:27:36;;;;;;;;;;;;;;;-144.99;100.00;52289.13;5001158;28;19926;-74
2022/05/21 02:30:04;;;;;;;;;;;;;;;-144.99;100.00;52362.50;4977670;28;19933;-74
2022/05/21 02:32:30;;;;;;;;;;;;;;;-144.99;100.00;52358.41;4972764;28;19926;-74
2022/05/21 02:34:56;;;;;;;;;;;;;;;-144.99;100.00;52325.81;4981187;28;19976;-73
2022/05/21 02:40:07;;;;;;;;;;;;;;;-144.99;100.00;52333.94;4979996;28;20024;-74
2022/05/21 02:42:46;;;;;;;;;;;;;;;-144.99;100.00;52301.34;4970945;28;19933;-73
2022/05/21 02:45:15;;;;;;;;;;;;;;;-144.99;100.00;52301.34;4969511;28;20286;-73
2022/05/21 02:47:42;;;;;;;;;;;;;;;-144.99;100.00;52323.75;4972641;28;20001;-74
2022/05/21 02:50:08;;;;;;;;;;;;;;;-144.99;100.00;52309.50;4979549;28;19930;-73
2022/05/21 02:52:35;;;;;;;;;;;;;;;-144.99;100.00;52321.72;4980651;28;19941;-71
2022/05/21 02:55:01;;;;;;;;;;;;;;;-144.99;100.00;52295.22;4992718;28;19926;-70
2022/05/21 02:57:27;;;;;;;;;;;;;;;-144.99;100.00;52313.56;4984718;28;19926;-71
2022/05/21 02:59:54;;;;;;;;;;;;;;;-144.99;100.00;52317.66;4973289;28;19934;-71
2022/05/21 03:02:23;;;;;;;;;;;;;;;-144.99;100.00;52301.34;4971599;28;19933;-71
2022/05/21 03:04:49;;;;;;;;;;;;;;;-144.99;100.00;52289.13;4980384;28;19926;-71
2022/05/21 03:07:15;;;;;;;;;;;;;;;-144.99;100.00;52301.34;4982756;28;19926;-71
2022/05/21 03:12:25;;;;;;;;;;;;;;;-144.99;100.00;52309.50;4970679;28;19977;-72
2022/05/21 03:14:52;;;;;;;;;;;;;;;-144.99;100.00;52315.59;4979272;28;19930;-72
2022/05/21 03:17:18;;;;;;;;;;;;;;;-144.99;100.00;52338.03;4984391;28;19926;-72
2022/05/21 03:19:46;;;;;;;;;;;;;;;-144.99;100.00;52305.41;4978679;28;19967;-73
2022/05/21 03:22:12;;;;;;;;;;;;;;;-144.99;100.00;52285.03;4973273;28;20409;-72
2022/05/21 03:24:39;;;;;;;;;;;;;;;-144.99;100.00;52305.41;4989930;28;20408;-72
2022/05/21 03:27:07;;;;;;;;;;;;;;;-144.99;100.00;52333.94;4984952;28;20000;-72
2022/05/21 03:29:33;;;;;;;;;;;;;;;-144.99;100.00;52297.25;4978943;28;20012;-72
2022/05/21 03:32:00;;;;;;;;;;;;;;;-144.99;100.00;52327.84;4978652;28;19930;-71
2022/05/21 03:34:26;;;;;;;;;;;;;;;-144.99;100.00;52297.25;4982909;28;19926;-71
2022/05/21 03:36:54;;;;;;;;;;;;;;;-144.99;100.00;52323.75;4990834;28;19930;-71
2022/05/21 03:39:20;;;;;;;;;;;;;;;-144.99;100.00;52333.94;4982988;28;19934;-71
2022/05/21 03:41:46;;;;;;;;;;;;;;;-144.99;100.00;52333.94;4975571;28;19926;-71
2022/05/21 03:44:13;;;;;;;;;;;;;;;-144.99;100.00;52336.00;4983537;28;19934;-71
2022/05/21 03:46:39;;;;;;;;;;;;;;;-144.99;100.00;52317.66;4979046;28;20328;-71
2022/05/21 03:49:05;;;;;;;;;;;;;;;-144.99;100.00;52354.34;4976411;28;19973;-72
2022/05/21 03:51:32;;;;;;;;;;;;;;;-144.99;100.00;52325.81;4976236;28;20301;-70
2022/05/21 03:53:59;;;;;;;;;;;;;;;-144.99;100.00;52309.50;4986551;28;20500;-71
2022/05/21 03:56:25;;;;;;;;;;;;;;;-144.99;100.00;52305.41;4995212;28;19930;-71
2022/05/21 03:58:52;;;;;;;;;;;;;;;-144.99;100.00;52321.72;4989395;28;19937;-71
2022/05/21 04:01:18;;;;;;;;;;;;;;;-144.99;100.00;52309.50;4979988;28;19926;-72
2022/05/21 04:03:44;;;;;;;;;;;;;;;-144.99;100.00;52295.22;4975338;28;19930;-71
2022/05/21 04:06:12;;;;;;;;;;;;;;;-144.99;100.00;52301.34;4984613;28;20413;-73
2022/05/21 04:08:38;;;;;;;;;;;;;;;-144.99;100.00;52293.19;4973428;28;19930;-73
2022/05/21 04:11:06;;;;;;;;;;;;;;;-144.99;100.00;52321.72;4976846;28;20073;-72
2022/05/21 04:13:32;;;;;;;;;;;;;;;-144.99;100.00;52309.50;4988096;28;19934;-70
2022/05/21 04:15:59;;;;;;;;;;;;;;;-144.99;100.00;52321.72;4995381;28;19933;-72
2022/05/21 04:18:25;;;;;;;;;;;;;;;-144.99;100.00;52305.41;4985711;28;20009;-73
2022/05/21 04:20:51;;;;;;;;;;;;;;;-144.99;100.00;52317.66;4988982;28;19927;-71
2022/05/21 04:23:17;;;;;;;;;;;;;;;-144.99;100.00;52303.38;4981840;28;20022;-71
2022/05/21 04:25:44;;;;;;;;;;;;;;;-144.99;100.00;52321.72;4981156;28;19925;-71
2022/05/21 04:28:12;;;;;;;;;;;;;;;-144.99;100.00;52321.72;4976331;28;19926;-71
2022/05/21 04:30:39;;;;;;;;;;;;;;;-144.99;100.00;52321.72;4982416;28;20444;-71
2022/05/21 04:33:06;;;;;;;;;;;;;;;-144.99;100.00;52325.81;4981313;28;19926;-71
2022/05/21 04:38:12;;;;;;;;;;;;;;;-144.99;100.00;52333.94;4974467;28;20385;-71
2022/05/21 04:40:38;;;;;;;;;;;;;;;-144.99;100.00;52301.34;4981010;28;19925;-73
2022/05/21 04:43:05;;;;;;;;;;;;;;;-144.99;100.00;52309.50;4983004;28;19930;-74
2022/05/21 04:45:33;;;;;;;;;;;;;;;-144.99;100.00;52346.19;4987473;28;20129;-73
2022/05/21 04:48:02;;;;;;;;;;;;;;;-144.99;100.00;52311.53;4971315;28;20025;-74
2022/05/21 04:50:28;;;;;;;;;;;;;;;-144.99;100.00;52342.09;4976581;28;20260;-73
2022/05/21 04:52:54;;;;;;;;;;;;;;;-144.99;100.00;52301.34;4981240;28;20416;-73
2022/05/21 04:55:21;;;;;;;;;;;;;;;-144.99;100.00;52340.06;4986645;28;20117;-73
2022/05/21 04:57:47;;;;;;;;;;;;;;;-144.99;100.00;52315.59;4972797;28;19930;-73
2022/05/21 05:00:14;;;;;;;;;;;;;;;-144.99;100.00;52321.72;4976688;28;19926;-74
2022/05/21 05:02:42;;;;;;;;;;;;;;;-144.99;100.00;52350.25;4977743;28;19926;-74
2022/05/21 05:05:09;;;;;;;;;;;;;;;-144.99;100.00;52309.50;4984909;28;19926;-74
2022/05/21 05:07:36;;;;;;;;;;;;;;;-144.99;100.00;52297.25;4987325;28;20392;-73
2022/05/21 05:10:03;;;;;;;;;;;;;;;-144.99;100.00;52325.81;4989731;28;19930;-73
2022/05/21 05:12:31;;;;;;;;;;;;;;;-144.99;100.00;52305.41;4996282;28;19932;-71
2022/05/21 05:14:57;;;;;;;;;;;;;;;-144.99;100.00;52301.34;4992573;28;19950;-71
2022/05/21 05:17:24;;;;;;;;;;;;;;;-144.99;100.00;52331.91;4986662;28;19934;-70
2022/05/21 05:19:54;;;;;;;;;;;;;;;-144.99;100.00;52354.34;4990407;28;19934;-70
2022/05/21 05:22:20;;;;;;;;;;;;;;;-144.99;100.00;52293.19;4988566;28;19926;-71
2022/05/21 05:24:47;;;;;;;;;;;;;;;-144.99;100.00;52321.72;4987605;28;19926;-71
2022/05/21 05:27:13;;;;;;;;;;;;;;;-144.99;100.00;52317.66;4972882;28;19926;-70
2022/05/21 05:29:39;;;;;;;;;;;;;;;-144.99;100.00;52301.34;4983453;28;19933;-71
2022/05/21 05:32:07;;;;;;;;;;;;;;;-144.99;100.00;52305.41;4981105;28;19937;-71
2022/05/21 05:34:33;;;;;;;;;;;;;;;-144.99;100.00;52329.88;4984138;28;19989;-71
2022/05/21 05:37:01;;;;;;;;;;;;;;;-144.99;100.00;52354.34;4971367;28;19930;-71
2022/05/21 05:39:28;;;;;;;;;;;;;;;-144.99;100.00;52309.50;4978838;28;19926;-72
2022/05/21 05:41:54;;;;;;;;;;;;;;;-144.99;100.00;52285.03;4980603;28;20020;-72
2022/05/21 05:44:21;;;;;;;;;;;;;;;-144.99;100.00;52342.09;4979016;28;19934;-72
2022/05/21 05:46:47;;;;;;;;;;;;;;;-144.99;100.00;52293.19;4988918;28;20006;-72
2022/05/21 05:49:14;;;;;;;;;;;;;;;-144.99;100.00;52317.66;4986373;28;19937;-73
2022/05/21 05:51:40;;;;;;;;;;;;;;;-144.99;100.00;52313.56;4984391;28;19938;-71
2022/05/21 05:54:08;;;;;;;;;;;;;;;-144.99;100.00;52342.09;4978730;28;19926;-71
2022/05/21 05:56:34;;;;;;;;;;;;;;;-144.99;100.00;52338.03;4978861;28;19936;-71
2022/05/21 06:01:44;;;;;;;;;;;;;;;-144.99;100.00;52346.19;4976346;28;20015;-71
2022/05/21 06:04:11;;;;;;;;;;;;;;;-144.99;100.00;52321.72;4976071;28;20337;-72
2022/05/21 06:06:37;;;;;;;;;;;;;;;-144.99;100.00;52340.06;4977315;28;19973;-73
2022/05/21 06:09:04;;;;;;;;;;;;;;;-144.99;100.00;52293.19;4972764;28;19930;-72
2022/05/21 06:11:37;;;;;;;;;;;;;;;-144.99;100.00;52297.25;4976252;28;20393;-71
2022/05/21 06:14:04;;;;;;;;;;;;;;;-144.99;100.00;52325.81;4980222;28;19926;-72
2022/05/21 06:16:30;;;;;;;;;;;;;;;-144.99;100.00;52248.34;4971595;28;20360;-72
2022/05/21 06:18:56;;;;;;;;;;;;;;;-144.99;100.00;52264.66;4973490;28;19926;-73
2022/05/21 06:21:24;;;;;;;;;;;;;;;-144.99;100.00;52338.03;4973944;28;19930;-74
2022/05/21 06:23:50;;;;;;;;;;;;;;;-144.99;100.00;52313.56;4979301;28;20358;-73
2022/05/21 06:26:17;;;;;;;;;;;;;;;-144.99;100.00;52321.72;4973878;28;20341;-73
2022/05/21 06:28:45;;;;;;;;;;;;;;;-144.99;100.00;52321.72;4976862;28;19926;-74
2022/05/21 06:31:11;;;;;;;;;;;;;;;-144.99;100.00;52301.34;4983208;28;19933;-74
2022/05/21 06:33:37;;;;;;;;;;;;;;;-144.99;100.00;52293.19;4973881;28;19926;-74
2022/05/21 06:36:06;;;;;;;;;;;;;;;-144.99;100.00;52309.50;4969274;28;19926;-73
2022/05/21 06:38:34;;;;;;;;;;;;;;;-144.99;100.00;52236.13;4986272;28;19932;-74
2022/05/21 06:41:00;;;;;;;;;;;;;;;-144.99;100.00;52272.81;4996401;28;20317;-74
2022/05/21 06:43:27;;;;;;;;;;;;;;;-144.99;100.00;52276.88;4985885;28;19925;-74
2022/05/21 06:45:54;;;;;;;;;;;;;;;-144.99;100.00;52293.19;4974729;28;20382;-74
2022/05/21 06:48:21;;;;;;;;;;;;;;;-144.99;100.00;52268.72;4982855;28;19941;-74
2022/05/21 06:50:47;;;;;;;;;;;;;;;-144.99;100.00;52333.94;4978988;28;19926;-74
2022/05/21 06:53:14;;;;;;;;;;;;;;;-144.99;100.00;52256.50;4971378;28;19926;-71
2022/05/21 06:55:40;;;;;;;;;;;;;;;-144.99;100.00;52289.13;4974069;28;19927;-71
2022/05/21 06:58:07;;;;;;;;;;;;;;;-144.99;100.00;52266.69;4980943;28;19926;-72
2022/05/21 07:00:33;;;;;;;;;;;;;;;-144.99;100.00;52301.34;4973350;28;19933;-73
2022/05/21 07:03:02;;;;;;;;;;;;;;;-144.99;100.00;52276.88;4976984;28;19926;-73
2022/05/21 07:08:15;;;;;;;;;;;;;;;-144.99;100.00;52329.88;4968703;28;19933;-73
2022/05/21 07:10:41;;;;;;;;;;;;;;;-144.99;100.00;52260.56;4971856;28;20315;-72
2022/05/21 07:13:07;;;;;;;;;;;;;;;-144.99;100.00;52264.66;4983554;28;19925;-71
2022/05/21 07:15:34;;;;;;;;;;;;;;;-144.99;100.00;52276.88;4971799;28;20370;-72
2022/05/21 07:18:03;;;;;;;;;;;;;;;-144.99;100.00;52248.34;4978699;28;20309;-72
2022/05/21 07:22:59;;;;;;;;;;;;;;;-144.99;100.00;52254.47;4978275;28;19925;-76
2022/05/21 07:25:27;;;;;;;;;;;;;;;-144.99;100.00;52266.69;4977796;28;20476;-77
2022/05/21 07:27:53;;;;;;;;;;;;;;;-144.99;100.00;52244.28;4992374;28;19933;-77
2022/05/21 07:30:20;;;;;;;;;;;;;;;-144.99;100.00;52240.19;4993141;28;19949;-76
2022/05/21 07:32:50;;;;;;;;;;;;;;;-144.99;100.00;52232.03;4972391;28;19926;-75
2022/05/21 07:35:19;;;;;;;;;;;;;;;-144.99;100.00;52258.53;4967045;28;19950;-73
2022/05/21 07:37:46;;;;;;;;;;;;;;;-144.99;100.00;52264.66;4970758;28;20374;-73
2022/05/21 07:40:13;;;;;;;;;;;;;;;-144.99;100.00;52236.13;4978865;28;19962;-75
2022/05/21 07:42:39;;;;;;;;;;;;;;;-144.99;100.00;52272.81;4968916;28;20020;-73
2022/05/21 07:45:07;;;;;;;;;;;;;;;-144.99;100.00;52244.28;4967778;28;19957;-74
2022/05/21 07:47:33;;;;;;;;;;;;;;;-144.99;100.00;52252.44;4967945;28;19926;-75
2022/05/21 07:50:00;;;;;;;;;;;;;;;-144.99;100.00;52242.22;4965903;28;20322;-75
2022/05/21 07:52:29;;;;;;;;;;;;;;;-144.99;100.00;52256.50;4965905;28;19938;-74
2022/05/21 07:54:55;;;;;;;;;;;;;;;-144.99;100.00;52289.13;4967010;28;19926;-74
2022/05/21 07:57:21;;;;;;;;;;;;;;;-144.99;100.00;52276.88;4279548;28;10000761;-73
2022/05/21 07:59:48;;;;;;;;;;;;;;;-144.99;100.00;52297.25;4970380;28;19930;-74
2022/05/21 08:02:15;;;;;;;;;;;;;;;-144.99;100.00;52244.28;4972681;28;19963;-74
2022/05/21 08:04:42;;;;;;;;;;;;;;;-144.99;100.00;52256.50;4968320;28;19977;-73
2022/05/21 08:07:09;;;;;;;;;;;;;;;-144.99;100.00;52311.53;4964517;28;19934;-74
2022/05/21 08:09:36;;;;;;;;;;;;;;;-144.99;100.00;52246.31;4967823;28;19926;-75
2022/05/21 08:12:03;;;;;;;;;;;;;;;-144.99;100.00;52289.13;4976072;28;19930;-74
2022/05/21 08:14:29;;;;;;;;;;;;;;;-144.99;100.00;52187.19;4968789;28;20030;-75
2022/05/21 08:16:56;;;;;;;;;;;;;;;-144.99;99.90;52272.81;4973888;28;19937;-73
2022/05/21 08:19:22;;;;;;;;;;;;;;;-144.99;99.89;52227.97;4970346;28;20227;-76
2022/05/21 08:21:48;;;;;;;;;;;;;;;-144.99;98.94;52280.97;4971787;28;19937;-75
2022/05/21 08:27:01;;;;;;;;;;;;;;;-144.99;96.12;52236.13;4975221;28;20304;-76
2022/05/21 08:29:29;;;;;;;;;;;;;;;-144.99;94.58;52227.97;4968508;28;20365;-74
2022/05/21 08:31:55;;;;;;;;;;;;;;;-144.99;96.13;52254.47;4970440;28;20397;-74
2022/05/21 08:34:22;;;;;;;;;;;;;;;-144.99;97.59;52272.81;4970006;28;19941;-73
2022/05/21 08:36:48;;;;;;;;;;;;;;;-144.99;97.69;52244.28;4973240;28;19937;-74
2022/05/21 08:39:14;;;;;;;;;;;;;;;-144.99;96.05;52248.34;4970808;28;19949;-73
2022/05/21 08:41:45;;;;;;;;;;;;;;;-144.99;97.99;52278.91;4963677;28;20236;-74
2022/05/21 08:44:17;;;;;;;;;;;;;;;-144.99;100.00;52244.28;4970609;28;19977;-75
2022/05/21 08:46:47;;;;;;;;;;;;;;;-144.99;100.00;52260.56;4972803;28;19936;-74
2022/05/21 08:49:18;;;;;;;;;;;;;;;-144.99;100.00;52280.97;4968394;28;19934;-78
2022/05/21 08:51:48;;;;;;;;;;;;;;;-144.99;100.00;52285.03;4968869;28;20361;-73
2022/05/21 08:54:17;;;;;;;;;;;;;;;-144.99;100.00;52240.19;4983988;28;19926;-76
2022/05/21 08:56:43;;;;;;;;;;;;;;;-144.99;100.00;52248.34;4983933;28;19937;-77
2022/05/21 08:59:10;;;;;;;;;;;;;;;-144.99;100.00;52236.13;4978391;28;19930;-76
2022/05/21 09:01:39;;;;;;;;;;;;;;;-144.99;100.00;52252.44;4979196;28;19929;-77
2022/05/21 09:04:06;;;;;;;;;;;;;;;-144.99;100.00;52264.66;4973740;28;19930;-76
2022/05/21 09:06:38;;;;;;;;;;;;;;;-144.99;100.00;52301.34;4976034;28;20434;-77
2022/05/21 09:09:09;;;;;;;;;;;;;;;-144.99;100.00;52289.13;4966576;28;19937;-76
2022/05/21 09:11:37;;;;;;;;;;;;;;;-144.99;100.00;52272.81;4972287;28;19937;-75
2022/05/21 09:14:07;;;;;;;;;;;;;;;-144.99;100.00;52305.41;4977142;28;19926;-75
2022/05/21 09:19:22;;;;;;;;;;;;;;;-144.99;100.00;52268.72;4970907;28;19982;-75
2022/05/21 09:21:48;;;;;;;;;;;;;;;-144.99;100.00;52280.97;4975153;28;19927;-75
2022/05/21 09:24:29;;;;;;;;;;;;;;;-144.99;98.09;52272.81;4973542;28;19954;-76
2022/05/21 09:26:55;;;;;;;;;;;;;;;-144.99;97.70;52256.50;4968285;28;20271;-75
2022/05/21 09:29:25;;;;;;;;;;;;;;;-144.99;95.98;52280.97;4968315;28;20136;-75
2022/05/21 09:31:53;;;;;;;;;;;;;;;-144.99;92.98;52264.66;4972880;28;19926;-75
2022/05/21 09:34:24;;;;;;;;;;;;;;;-144.99;92.52;52252.44;4975700;28;19926;-76
2022/05/21 09:36:50;;;;;;;;;;;;;;;-144.99;90.31;52225.94;4989322;28;19928;-77
2022/05/21 09:39:30;;;;;;;;;;;;;;;-144.99;90.05;52227.97;4991337;28;19926;-75
2022/05/21 09:42:06;;;;;;;;;;;;;;;-144.99;87.79;52280.97;4962516;28;19988;-76
2022/05/21 09:47:22;;;;;;;;;;;;;;;-144.99;84.88;52227.97;4973519;28;19933;-76
2022/05/21 09:50:01;;;;;;;;;;;;;;;-144.99;84.28;52223.88;4972968;28;19980;-76
2022/05/21 09:52:29;;;;;;;;;;;;;;;-144.99;82.29;52280.97;4972967;28;19926;-76
2022/05/21 09:54:56;;;;;;;;;;;;;;;-144.99;82.77;52301.34;4982895;28;19933;-76
2022/05/21 09:57:23;;;;;;;;;;;;;;;-144.99;84.42;52256.50;4977797;28;19933;-76
2022/05/21 10:00:01;;;;;;;;;;;;;;;-144.99;83.78;52256.50;4973658;28;19930;-76
2022/05/21 10:02:43;;;;;;;;;;;;;;;-144.99;85.73;52236.13;4969259;28;19936;-75
2022/05/21 10:05:13;;;;;;;;;;;;;;;-144.99;86.75;52307.47;4965217;28;19930;-77
2022/05/21 10:13:12;;;;;;;;;;;;;;;-144.99;82.37;52285.03;4959014;28;19937;-75
2022/05/21 10:15:42;;;;;;;;;;;;;;;-144.99;83.22;52246.31;4967738;28;19926;-75
2022/05/21 10:18:13;;;;;;;;;;;;;;;-144.99;81.55;52240.19;4968370;28;19926;-74
2022/05/21 10:20:43;;;;;;;;;;;;;;;-144.99;76.98;52244.28;4280523;28;10020733;-76
2022/05/21 10:23:20;;;;;;;;;;;;;;;-144.99;76.09;52215.75;4961253;28;19950;-77
2022/05/21 10:25:55;;;;;;;;;;;;;;;-144.99;72.48;52174.97;4962236;28;19930;-75
2022/05/21 10:28:27;;;;;;;;;;;;;;;-144.99;70.23;52195.34;4963720;28;19938;-75
2022/05/21 10:31:13;;;;;;;;;;;;;;;-144.99;69.68;52191.28;4966555;28;19930;-75
2022/05/21 10:33:45;;;;;;;;;;;;;;;-144.99;68.38;52209.63;4965519;28;19930;-75
2022/05/21 10:36:38;;;;;;;;;;;;;;;-144.99;66.43;52223.88;4959048;28;19930;-77
2022/05/21 10:39:21;;;;;;;;;;;;;;;-144.99;64.48;52097.53;4938443;28;20380;-75
2022/05/21 10:41:56;;;;;;;;;;;;;;;-144.99;64.59;52162.75;4965779;28;20255;-74
2022/05/21 10:44:28;;;;;;;;;;;;;;;-144.99;61.73;52105.69;4959502;28;19930;-76
2022/05/21 10:47:00;;;;;;;;;;;;;;;-144.99;58.56;52158.66;4963959;28;20326;-76
2022/05/21 10:49:38;;;;;;;;;;;;;;;-144.99;57.37;52142.38;4958517;28;19930;-76
2022/05/21 10:52:10;;;;;;;;;;;;;;;-144.99;57.02;52150.53;4959502;28;20031;-76
2022/05/21 10:54:48;;;;;;;;;;;;;;;-144.99;56.59;52211.66;4962362;28;19930;-76
2022/05/21 10:57:27;;;;;;;;;;;;;;;-144.99;56.38;52252.44;4959135;28;19931;-76
2022/05/21 11:00:02;;;;;;;;;;;;;;;-144.99;57.10;52119.94;4970675;28;20321;-76
2022/05/21 11:02:43;;;;;;;;;;;;;;;-144.99;56.67;52130.13;4972464;28;19931;-75
2022/05/21 11:05:22;;;;;;;;;;;;;;;-144.99;53.83;52087.34;4954772;28;19937;-75
2022/05/21 11:07:49;;;;;;;;;;;;;;;-144.99;54.52;52138.28;4961581;28;19930;-75
2022/05/21 11:10:26;;;;;;;;;;;;;;;-144.99;54.64;52117.91;4957379;28;20124;-76
2022/05/21 11:12:55;;;;;;;;;;;;;;;-144.99;52.99;52121.97;4958988;28;19937;-76
2022/05/21 11:15:28;;;;;;;;;;;;;;;-144.99;54.38;52203.50;4959211;28;20015;-76
2022/05/21 11:17:57;;;;;;;;;;;;;;;-144.99;52.91;52109.75;4959038;28;19993;-76
2022/05/21 11:20:25;;;;;;;;;;;;;;;-144.99;51.32;52097.53;4959720;28;19997;-77
2022/05/21 11:22:55;;;;;;;;;;;;;;;-144.99;49.90;52073.06;4962630;28;19937;-76
2022/05/21 11:25:24;;;;;;;;;;;;;;;-144.99;49.08;52093.44;4965545;28;19949;-77
2022/05/21 11:27:54;;;;;;;;;;;;;;;-144.99;50.03;52179.06;4963179;28;20062;-76
2022/05/21 11:30:21;;;;;;;;;;;;;;;-144.99;51.51;52101.59;4964893;28;19933;-76
2022/05/21 11:38:21;;;;;;;;;;;;;;;-144.99;51.61;52166.81;4963848;28;19937;-77
2022/05/21 11:41:24;;;;;;;;;;;;;;;-144.99;51.46;52126.06;4965361;28;19972;-79
2022/05/21 11:44:55;;;;;;;;;;;;;;;-144.99;50.50;52154.59;4977309;28;20331;-76
2022/05/21 11:46:50;;;;;;;;;;;;;;;-144.99;50.35;52174.97;4956651;28;19998;-77
2022/05/21 11:49:34;;;;;;;;;;;;;;;-144.99;51.25;52207.59;4967069;28;20404;-76
2022/05/21 11:52:20;;;;;;;;;;;;;;;-144.99;51.74;52170.91;4962109;28;20059;-77
2022/05/21 11:54:59;;;;;;;;;;;;;;;-144.99;51.55;52207.59;4967371;28;19938;-78
2022/05/21 11:57:32;;;;;;;;;;;;;;;-144.99;51.76;52227.97;4966281;28;19933;-75
2022/05/21 11:59:59;;;;;;;;;;;;;;;-144.99;53.31;52213.69;4964125;28;19930;-75
2022/05/21 12:02:27;;;;;;;;;;;;;;;-144.99;54.21;52211.66;4967233;28;19934;-77
2022/05/21 12:04:55;;;;;;;;;;;;;;;-144.99;52.55;52195.34;4968669;28;19939;-77
2022/05/21 12:07:40;;;;;;;;;;;;;;;-144.99;52.72;52170.91;4623301;28;10000186;-77
2022/05/21 12:10:10;;;;;;;;;;;;;;;-144.99;53.04;52187.19;4961168;28;20389;-76
2022/05/21 12:12:59;;;;;;;;;;;;;;;-144.99;52.62;52248.34;4974326;28;19930;-76
2022/05/21 12:15:35;;;;;;;;;;;;;;;-144.99;52.61;52232.03;4971345;28;20212;-76
2022/05/21 12:18:03;;;;;;;;;;;;;;;-144.99;52.06;52205.53;4966690;28;19930;-75
2022/05/21 12:20:43;;;;;;;;;;;;;;;-144.99;51.34;52227.97;4972324;28;20057;-75
2022/05/21 12:23:13;;;;;;;;;;;;;;;-144.99;52.32;52215.75;4963855;28;20314;-77
2022/05/21 12:25:57;;;;;;;;;;;;;;;-144.99;52.82;52232.03;4977307;28;19945;-79
2022/05/21 12:28:30;;;;;;;;;;;;;;;-144.99;52.87;52219.81;4976904;28;19930;-76
2022/05/21 12:31:00;;;;;;;;;;;;;;;-144.99;51.86;52195.34;4966270;28;19926;-76
2022/05/21 12:33:32;;;;;;;;;;;;;;;-144.99;51.63;52126.06;4969385;28;20333;-75
2022/05/21 12:36:00;;;;;;;;;;;;;;;-144.99;50.31;52101.59;4968044;28;20497;-74
2022/05/21 12:38:30;;;;;;;;;;;;;;;-144.99;49.14;52117.91;4965498;28;19930;-75
2022/05/21 12:41:03;;;;;;;;;;;;;;;-144.99;46.92;52101.59;4965455;28;19934;-77
2022/05/21 12:43:42;;;;;;;;;;;;;;;-144.99;48.27;52170.91;4964114;28;20013;-77
2022/05/21 12:46:18;;;;;;;;;;;;;;;-144.99;49.05;52209.63;4968865;28;20291;-75
2022/05/21 12:48:44;;;;;;;;;;;;;;;-144.99;49.53;52207.59;4968729;28;19934;-76
2022/05/21 12:51:14;;;;;;;;;;;;;;;-144.99;50.18;52136.25;4966768;28;19973;-75
2022/05/21 12:53:44;;;;;;;;;;;;;;;-144.99;49.30;52109.75;4964683;28;19934;-75
2022/05/21 12:56:18;;;;;;;;;;;;;;;-144.99;48.44;52177.00;4960594;28;19974;-76
2022/05/21 12:58:45;;;;;;;;;;;;;;;-144.99;48.29;52215.75;4966470;28;19934;-75
2022/05/21 13:01:22;;;;;;;;;;;;;;;-144.99;46.63;52221.84;4964380;28;20296;-75
2022/05/21 13:03:48;;;;;;;;;;;;;;;-144.99;47.54;52154.59;4965438;28;19936;-76
2022/05/21 13:06:20;;;;;;;;;;;;;;;-144.99;46.55;52244.28;4968817;28;20501;-77
2022/05/21 13:08:47;;;;;;;;;;;;;;;-144.99;47.09;52174.97;4968262;28;19937;-76
2022/05/21 13:11:16;;;;;;;;;;;;;;;-144.99;46.67;52207.59;4969552;28;19930;-77